createdAt,value
2022-10-09T00:00:30.606Z,12.60
2022-10-09T00:01:30.596Z,23.10
2022-10-09T00:02:30.672Z,22.80
2022-10-09T00:03:30.576Z,19.10
2022-10-09T00:04:30.565Z,17.70
2022-10-09T00:05:30.644Z,23.50
2022-10-09T00:06:30.540Z,20.00
2022-10-09T00:07:30.536Z,22.50
2022-10-09T00:08:30.527Z,21.00
2022-10-09T00:09:30.512Z,15.10
2022-10-09T00:10:30.598Z,20.30
2022-10-09T00:11:30.509Z,16.50
2022-10-09T00:12:30.477Z,15.60
2022-10-09T00:13:30.503Z,15.80
2022-10-09T00:14:30.456Z,21.00
2022-10-09T00:15:30.447Z,19.20
2022-10-09T00:16:30.490Z,18.70
2022-10-09T00:17:30.421Z,23.30
2022-10-09T00:18:30.410Z,17.70
2022-10-09T00:19:30.403Z,16.80
2022-10-09T00:20:30.486Z,18.10
2022-10-09T00:21:30.379Z,21.50
2022-10-09T00:22:30.368Z,24.70
2022-10-09T00:23:30.355Z,23.20
2022-10-09T00:24:30.350Z,24.30
2022-10-09T00:25:30.336Z,17.90
2022-10-09T00:26:30.330Z,16.50
2022-10-09T00:27:30.335Z,21.90
2022-10-09T00:28:30.534Z,19.30
2022-10-09T00:29:30.290Z,23.10
2022-10-09T00:30:30.308Z,19.20
2022-10-09T00:31:30.298Z,22.40
2022-10-09T00:32:30.256Z,15.60
2022-10-09T00:33:30.250Z,18.30
2022-10-09T00:34:30.234Z,15.30
2022-10-09T00:35:30.230Z,19.20
2022-10-09T00:36:30.219Z,24.60
2022-10-09T00:37:30.204Z,22.30
2022-10-09T00:38:30.203Z,19.30
2022-10-09T00:39:30.191Z,18.60
2022-10-09T00:40:30.172Z,16.10
2022-10-09T00:41:30.165Z,19.70
2022-10-09T00:42:30.152Z,19.70
2022-10-09T00:43:30.168Z,20.30
2022-10-09T00:44:30.127Z,17.70
2022-10-09T00:45:30.119Z,17.40
2022-10-09T00:46:30.199Z,17.20
2022-10-09T00:47:30.096Z,18.90
2022-10-09T00:48:30.089Z,15.90
2022-10-09T00:49:30.078Z,16.30
2022-10-09T00:50:30.067Z,23.40
2022-10-09T00:51:30.053Z,19.00
2022-10-09T00:52:30.044Z,18.00
2022-10-09T00:53:30.034Z,18.30
2022-10-09T00:54:30.019Z,18.40
2022-10-09T00:55:30.010Z,19.40
2022-10-09T00:56:29.997Z,24.70
2022-10-09T00:57:29.986Z,19.00
2022-10-09T00:58:29.976Z,18.90
2022-10-09T00:59:30.001Z,18.30
2022-10-09T01:00:29.954Z,18.70
2022-10-09T01:01:30.008Z,17.30
2022-10-09T01:02:30.110Z,22.40
2022-10-09T01:03:29.926Z,19.30
2022-10-09T01:04:29.914Z,21.60
2022-10-09T01:05:29.900Z,19.00
2022-10-09T01:06:29.897Z,24.80
2022-10-09T01:07:29.933Z,22.60
2022-10-09T01:08:29.870Z,17.30
2022-10-09T01:09:29.857Z,15.50
2022-10-09T01:10:29.848Z,16.60
2022-10-09T01:11:29.840Z,22.50
2022-10-09T01:12:29.924Z,23.30
2022-10-09T01:13:29.817Z,21.40
2022-10-09T01:14:29.808Z,27.20
2022-10-09T01:15:29.897Z,19.80
2022-10-09T01:16:29.782Z,17.50
2022-10-09T01:17:29.888Z,16.90
2022-10-09T01:18:29.760Z,16.30
2022-10-09T01:19:29.753Z,16.80
2022-10-09T01:20:29.743Z,20.40
2022-10-09T01:21:29.736Z,19.30
2022-10-09T01:22:29.816Z,21.10
2022-10-09T01:23:29.707Z,16.70
2022-10-09T01:24:29.698Z,16.30
2022-10-09T01:25:29.688Z,18.20
2022-10-09T01:26:29.671Z,27.70
2022-10-09T01:27:29.668Z,16.50
2022-10-09T01:28:29.821Z,22.50
2022-10-09T01:29:29.643Z,25.10
2022-10-09T01:30:29.632Z,21.50
2022-10-09T01:31:29.840Z,19.10
2022-10-09T01:32:29.609Z,20.50
2022-10-09T01:33:29.600Z,16.40
2022-10-09T01:34:30.356Z,20.60
2022-10-09T01:35:29.578Z,19.60
2022-10-09T01:36:29.975Z,27.70
2022-10-09T01:37:29.562Z,17.40
2022-10-09T01:38:29.550Z,15.70
2022-10-09T01:39:29.537Z,19.60
2022-10-09T01:40:29.519Z,19.10
2022-10-09T01:41:29.519Z,17.00
2022-10-09T01:42:29.500Z,23.10
2022-10-09T01:43:29.489Z,23.00
2022-10-09T01:44:29.479Z,19.20
2022-10-09T01:45:29.468Z,20.70
2022-10-09T01:46:29.546Z,16.50
2022-10-09T01:47:29.581Z,23.00
2022-10-09T01:48:29.433Z,21.90
2022-10-09T01:49:29.426Z,19.00
2022-10-09T01:50:29.446Z,18.80
2022-10-09T01:51:29.427Z,18.80
2022-10-09T01:52:29.391Z,24.20
2022-10-09T01:53:29.390Z,21.40
2022-10-09T01:54:29.369Z,22.80
2022-10-09T01:55:29.359Z,20.10
2022-10-09T01:56:29.346Z,21.60
2022-10-09T01:57:29.338Z,22.10
2022-10-09T01:58:29.327Z,20.40
2022-10-09T01:59:29.316Z,20.50
2022-10-09T02:00:29.308Z,20.00
2022-10-09T02:01:29.361Z,20.00
2022-10-09T02:02:29.409Z,22.90
2022-10-09T02:03:29.297Z,22.50
2022-10-09T02:04:29.261Z,21.20
2022-10-09T02:05:29.252Z,23.00
2022-10-09T02:06:29.240Z,19.10
2022-10-09T02:07:29.233Z,23.00
2022-10-09T02:08:29.217Z,16.20
2022-10-09T02:09:29.208Z,19.20
2022-10-09T02:10:29.198Z,19.00
2022-10-09T02:11:29.187Z,16.00
2022-10-09T02:12:29.175Z,23.10
2022-10-09T02:13:29.167Z,15.70
2022-10-09T02:14:29.156Z,20.50
2022-10-09T02:15:29.144Z,17.70
2022-10-09T02:16:30.632Z,21.90
2022-10-09T02:17:29.121Z,20.30
2022-10-09T02:18:29.110Z,20.40
2022-10-09T02:19:29.124Z,20.60
2022-10-09T02:20:29.086Z,18.50
2022-10-09T02:21:29.077Z,15.50
2022-10-09T02:22:29.068Z,15.70
2022-10-09T02:23:29.056Z,16.60
2022-10-09T02:24:29.047Z,19.60
2022-10-09T02:25:29.032Z,22.00
2022-10-09T02:26:29.025Z,17.50
2022-10-09T02:27:29.009Z,15.80
2022-10-09T02:28:29.070Z,17.40
2022-10-09T02:29:28.987Z,21.90
2022-10-09T02:30:28.979Z,19.70
2022-10-09T02:31:29.089Z,17.00
2022-10-09T02:32:28.957Z,21.20
2022-10-09T02:33:28.943Z,19.20
2022-10-09T02:34:28.936Z,21.10
2022-10-09T02:35:28.945Z,21.20
2022-10-09T02:36:28.918Z,21.50
2022-10-09T02:37:28.900Z,17.70
2022-10-09T02:38:28.890Z,20.00
2022-10-09T02:39:28.877Z,17.80
2022-10-09T02:40:28.870Z,22.20
2022-10-09T02:41:28.855Z,16.70
2022-10-09T02:42:28.845Z,21.10
2022-10-09T02:43:28.836Z,28.00
2022-10-09T02:44:28.826Z,24.70
2022-10-09T02:45:28.814Z,16.60
2022-10-09T02:46:28.879Z,17.70
2022-10-09T02:47:28.790Z,19.70
2022-10-09T02:48:28.778Z,19.60
2022-10-09T02:49:28.768Z,21.90
2022-10-09T02:50:28.758Z,23.40
2022-10-09T02:51:28.769Z,18.40
2022-10-09T02:52:28.734Z,20.30
2022-10-09T02:53:28.722Z,18.10
2022-10-09T02:54:28.712Z,22.90
2022-10-09T02:55:28.700Z,18.40
2022-10-09T02:56:28.693Z,19.40
2022-10-09T02:57:28.678Z,23.60
2022-10-09T02:58:28.669Z,18.70
2022-10-09T02:59:28.656Z,21.30
2022-10-09T03:00:28.646Z,13.30
2022-10-09T03:01:28.708Z,20.50
2022-10-09T03:02:28.742Z,25.60
2022-10-09T03:03:28.612Z,17.30
2022-10-09T03:04:28.606Z,21.30
2022-10-09T03:05:28.590Z,19.70
2022-10-09T03:06:28.581Z,18.90
2022-10-09T03:07:28.592Z,19.30
2022-10-09T03:08:28.560Z,23.20
2022-10-09T03:09:33.401Z,17.50
2022-10-09T03:10:28.535Z,18.80
2022-10-09T03:11:28.524Z,23.10
2022-10-09T03:12:28.524Z,19.80
2022-10-09T03:13:28.501Z,18.40
2022-10-09T03:14:28.490Z,19.40
2022-10-09T03:15:28.481Z,19.50
2022-10-09T03:16:28.509Z,25.20
2022-10-09T03:17:28.458Z,25.00
2022-10-09T03:18:28.451Z,17.90
2022-10-09T03:19:28.437Z,17.30
2022-10-09T03:20:28.425Z,19.20
2022-10-09T03:21:28.418Z,17.10
2022-10-09T03:22:28.405Z,20.50
2022-10-09T03:23:28.416Z,21.40
2022-10-09T03:24:28.381Z,20.00
2022-10-09T03:25:28.369Z,17.10
2022-10-09T03:26:28.361Z,17.90
2022-10-09T03:27:28.353Z,21.20
2022-10-09T03:28:28.449Z,28.00
2022-10-09T03:29:28.326Z,16.90
2022-10-09T03:30:28.324Z,18.10
2022-10-09T03:31:57.319Z,15.00
2022-10-09T03:32:29.409Z,21.80
2022-10-09T03:33:28.282Z,28.90
2022-10-09T03:34:28.277Z,15.40
2022-10-09T03:35:28.261Z,24.80
2022-10-09T03:36:28.250Z,23.80
2022-10-09T03:37:28.238Z,19.70
2022-10-09T03:38:28.228Z,19.20
2022-10-09T03:39:28.243Z,17.10
2022-10-09T03:40:28.207Z,25.10
2022-10-09T03:41:28.196Z,27.80
2022-10-09T03:42:28.187Z,23.40
2022-10-09T03:43:28.172Z,18.90
2022-10-09T03:44:28.164Z,20.10
2022-10-09T03:45:28.150Z,20.20
2022-10-09T03:46:28.253Z,18.00
2022-10-09T03:47:28.128Z,26.50
2022-10-09T03:48:28.126Z,21.60
2022-10-09T03:49:28.106Z,19.70
2022-10-09T03:50:28.096Z,24.00
2022-10-09T03:51:28.087Z,20.30
2022-10-09T03:52:28.076Z,24.60
2022-10-09T03:53:28.063Z,16.10
2022-10-09T03:54:28.058Z,19.40
2022-10-09T03:55:28.065Z,21.80
2022-10-09T03:56:28.031Z,20.60
2022-10-09T03:57:28.023Z,20.10
2022-10-09T03:58:28.010Z,22.90
2022-10-09T03:59:27.998Z,19.70
2022-10-09T04:00:27.989Z,16.20
2022-10-09T04:01:28.040Z,27.40
2022-10-09T04:02:27.997Z,22.80
2022-10-09T04:03:27.955Z,23.00
2022-10-09T04:04:28.030Z,16.30
2022-10-09T04:05:27.932Z,18.10
2022-10-09T04:06:27.922Z,19.80
2022-10-09T04:07:27.911Z,22.00
2022-10-09T04:08:27.901Z,23.50
2022-10-09T04:09:27.889Z,20.10
2022-10-09T04:10:27.879Z,21.30
2022-10-09T04:11:27.891Z,16.50
2022-10-09T04:12:27.860Z,18.70
2022-10-09T04:13:27.867Z,24.30
2022-10-09T04:14:27.835Z,28.60
2022-10-09T04:15:27.827Z,23.10
2022-10-09T04:16:27.866Z,21.10
2022-10-09T04:17:27.803Z,24.40
2022-10-09T04:18:27.791Z,19.60
2022-10-09T04:19:27.778Z,22.20
2022-10-09T04:20:27.772Z,22.80
2022-10-09T04:21:27.758Z,17.60
2022-10-09T04:22:27.748Z,18.00
2022-10-09T04:23:27.736Z,21.50
2022-10-09T04:24:27.726Z,23.40
2022-10-09T04:25:27.715Z,21.90
2022-10-09T04:26:27.705Z,19.50
2022-10-09T04:27:27.715Z,14.60
2022-10-09T04:28:27.747Z,17.20
2022-10-09T04:29:27.672Z,19.50
2022-10-09T04:30:27.662Z,16.30
2022-10-09T04:31:27.749Z,20.40
2022-10-09T04:32:27.638Z,20.00
2022-10-09T04:33:27.629Z,18.60
2022-10-09T04:34:27.619Z,15.10
2022-10-09T04:35:27.604Z,22.80
2022-10-09T04:36:27.597Z,24.20
2022-10-09T04:37:27.585Z,19.70
2022-10-09T04:38:27.573Z,22.00
2022-10-09T04:39:27.561Z,19.40
2022-10-09T04:40:27.553Z,17.40
2022-10-09T04:41:27.539Z,17.30
2022-10-09T04:42:27.530Z,20.10
2022-10-09T04:43:27.542Z,17.30
2022-10-09T04:44:27.511Z,19.10
2022-10-09T04:45:27.527Z,22.00
2022-10-09T04:46:27.486Z,25.90
2022-10-09T04:47:27.476Z,24.50
2022-10-09T04:48:27.468Z,23.10
2022-10-09T04:49:27.454Z,20.70
2022-10-09T04:50:27.444Z,25.20
2022-10-09T04:51:27.430Z,18.00
2022-10-09T04:52:27.421Z,20.70
2022-10-09T04:53:27.409Z,20.80
2022-10-09T04:54:27.402Z,28.70
2022-10-09T04:55:27.388Z,20.60
2022-10-09T04:56:27.379Z,24.30
2022-10-09T04:57:27.367Z,22.20
2022-10-09T04:58:27.356Z,23.10
2022-10-09T04:59:27.367Z,20.50
2022-10-09T05:00:27.339Z,23.70
2022-10-09T05:01:27.470Z,29.10
2022-10-09T05:02:27.455Z,21.40
2022-10-09T05:03:27.309Z,28.30
2022-10-09T05:04:27.291Z,23.60
2022-10-09T05:05:27.281Z,24.60
2022-10-09T05:06:27.272Z,23.40
2022-10-09T05:07:27.260Z,22.90
2022-10-09T05:08:27.247Z,28.00
2022-10-09T05:09:27.234Z,25.40
2022-10-09T05:10:27.257Z,24.10
2022-10-09T05:11:27.215Z,25.20
2022-10-09T05:12:27.207Z,21.60
2022-10-09T05:13:27.190Z,21.90
2022-10-09T05:14:27.185Z,22.10
2022-10-09T05:15:27.391Z,24.00
2022-10-09T05:16:27.270Z,22.30
2022-10-09T05:17:27.243Z,20.30
2022-10-09T05:18:27.137Z,22.50
2022-10-09T05:19:27.125Z,23.10
2022-10-09T05:20:27.116Z,28.00
2022-10-09T05:21:27.100Z,25.50
2022-10-09T05:22:27.093Z,24.70
2022-10-09T05:23:27.079Z,28.30
2022-10-09T05:24:27.071Z,29.10
2022-10-09T05:25:27.057Z,26.10
2022-10-09T05:26:27.046Z,31.20
2022-10-09T05:27:27.034Z,31.20
2022-10-09T05:28:27.137Z,32.60
2022-10-09T05:29:27.011Z,34.90
2022-10-09T05:30:27.000Z,27.00
2022-10-09T05:31:27.103Z,31.20
2022-10-09T05:32:26.978Z,34.20
2022-10-09T05:33:26.966Z,27.60
2022-10-09T05:34:26.963Z,31.20
2022-10-09T05:35:26.944Z,33.30
2022-10-09T05:36:26.933Z,34.40
2022-10-09T05:37:26.924Z,25.90
2022-10-09T05:38:26.912Z,39.60
2022-10-09T05:39:26.899Z,26.60
2022-10-09T05:40:29.245Z,29.50
2022-10-09T05:41:26.877Z,27.00
2022-10-09T05:42:26.868Z,28.60
2022-10-09T05:43:26.854Z,34.40
2022-10-09T05:44:26.846Z,28.20
2022-10-09T05:45:26.980Z,30.80
2022-10-09T05:46:26.826Z,27.70
2022-10-09T05:47:26.891Z,37.60
2022-10-09T05:48:26.806Z,26.20
2022-10-09T05:49:26.789Z,28.40
2022-10-09T05:50:26.781Z,28.40
2022-10-09T05:51:26.766Z,28.90
2022-10-09T05:52:26.760Z,27.80
2022-10-09T05:53:26.744Z,26.00
2022-10-09T05:54:26.734Z,29.70
2022-10-09T05:55:26.722Z,22.40
2022-10-09T05:56:26.714Z,25.30
2022-10-09T05:57:26.700Z,29.60
2022-10-09T05:58:26.691Z,30.60
2022-10-09T05:59:26.679Z,27.30
2022-10-09T06:00:26.669Z,32.60
2022-10-09T06:01:26.729Z,28.30
2022-10-09T06:02:26.745Z,25.60
2022-10-09T06:03:26.659Z,29.00
2022-10-09T06:04:26.626Z,31.50
2022-10-09T06:05:26.612Z,25.80
2022-10-09T06:06:26.602Z,27.60
2022-10-09T06:07:26.591Z,32.10
2022-10-09T06:08:26.581Z,26.40
2022-10-09T06:09:26.593Z,28.40
2022-10-09T06:10:32.157Z,27.80
2022-10-09T06:11:26.546Z,27.00
2022-10-09T06:12:26.536Z,34.70
2022-10-09T06:13:26.523Z,36.60
2022-10-09T06:14:26.517Z,33.10
2022-10-09T06:15:26.502Z,31.10
2022-10-09T06:16:26.551Z,29.00
2022-10-09T06:17:26.480Z,28.60
2022-10-09T06:18:26.471Z,34.30
2022-10-09T06:19:26.481Z,36.70
2022-10-09T06:20:26.449Z,32.10
2022-10-09T06:21:26.452Z,35.20
2022-10-09T06:22:26.427Z,33.00
2022-10-09T06:23:26.417Z,31.60
2022-10-09T06:24:29.097Z,36.80
2022-10-09T06:25:26.394Z,43.10
2022-10-09T06:26:26.384Z,31.00
2022-10-09T06:27:26.372Z,37.50
2022-10-09T06:28:26.409Z,30.70
2022-10-09T06:29:26.367Z,27.70
2022-10-09T06:30:26.469Z,26.60
2022-10-09T06:31:26.413Z,27.30
2022-10-09T06:32:26.353Z,29.10
2022-10-09T06:33:26.379Z,29.60
2022-10-09T06:34:26.407Z,29.00
2022-10-09T06:35:26.408Z,29.60
2022-10-09T06:36:26.415Z,31.30
2022-10-09T06:37:26.426Z,32.00
2022-10-09T06:38:26.329Z,33.10
2022-10-09T06:39:26.275Z,28.70
2022-10-09T06:40:26.232Z,29.00
2022-10-09T06:41:26.242Z,29.20
2022-10-09T06:42:26.209Z,25.10
2022-10-09T06:43:26.199Z,31.20
2022-10-09T06:44:26.183Z,36.80
2022-10-09T06:45:26.176Z,28.70
2022-10-09T06:46:26.244Z,31.40
2022-10-09T06:47:26.153Z,34.10
2022-10-09T06:48:26.142Z,40.10
2022-10-09T06:49:26.137Z,36.80
2022-10-09T06:50:26.124Z,33.00
2022-10-09T06:51:26.134Z,39.90
2022-10-09T06:52:26.097Z,43.40
2022-10-09T06:53:26.089Z,50.40
2022-10-09T06:54:26.079Z,45.50
2022-10-09T06:55:28.720Z,45.60
2022-10-09T06:56:26.053Z,41.50
2022-10-09T06:57:26.048Z,60.90
2022-10-09T06:58:26.033Z,46.40
2022-10-09T06:59:26.022Z,54.70
2022-10-09T07:00:26.057Z,56.50
2022-10-09T07:01:26.075Z,56.80
2022-10-09T07:02:26.035Z,54.20
2022-10-09T07:03:25.977Z,51.20
2022-10-09T07:04:25.965Z,59.40
2022-10-09T07:05:25.957Z,64.30
2022-10-09T07:06:25.950Z,61.90
2022-10-09T07:07:25.959Z,47.40
2022-10-09T07:08:25.943Z,45.80
2022-10-09T07:09:25.916Z,44.40
2022-10-09T07:10:25.900Z,62.40
2022-10-09T07:11:25.895Z,62.60
2022-10-09T07:12:25.888Z,51.70
2022-10-09T07:13:25.869Z,49.60
2022-10-09T07:14:25.863Z,49.20
2022-10-09T07:15:25.871Z,52.90
2022-10-09T07:16:25.889Z,51.90
2022-10-09T07:17:25.840Z,76.20
2022-10-09T07:18:25.817Z,54.90
2022-10-09T07:19:25.804Z,59.40
2022-10-09T07:20:25.838Z,54.40
2022-10-09T07:21:25.783Z,56.50
2022-10-09T07:22:27.131Z,60.80
2022-10-09T07:23:25.786Z,53.90
2022-10-09T07:24:25.751Z,49.70
2022-10-09T07:25:25.741Z,65.30
2022-10-09T07:26:25.725Z,54.00
2022-10-09T07:27:25.720Z,58.90
2022-10-09T07:28:25.786Z,62.60
2022-10-09T07:29:25.705Z,60.80
2022-10-09T07:30:25.768Z,67.40
2022-10-09T07:31:25.792Z,57.10
2022-10-09T07:32:25.664Z,50.80
2022-10-09T07:33:25.651Z,50.30
2022-10-09T07:34:25.639Z,54.50
2022-10-09T07:35:25.631Z,52.50
2022-10-09T07:36:25.617Z,79.30
2022-10-09T07:37:25.607Z,62.60
2022-10-09T07:38:25.595Z,55.90
2022-10-09T07:39:25.610Z,114.90
2022-10-09T07:40:25.698Z,58.80
2022-10-09T07:41:25.567Z,62.80
2022-10-09T07:42:25.552Z,46.50
2022-10-09T07:43:25.541Z,49.70
2022-10-09T07:44:25.534Z,54.20
2022-10-09T07:45:25.522Z,50.30
2022-10-09T07:46:27.676Z,41.80
2022-10-09T07:47:25.496Z,56.80
2022-10-09T07:48:25.483Z,38.40
2022-10-09T07:49:25.480Z,49.10
2022-10-09T07:50:25.494Z,46.90
2022-10-09T07:51:25.457Z,43.20
2022-10-09T07:52:25.454Z,44.60
2022-10-09T07:53:25.433Z,38.20
2022-10-09T07:54:25.421Z,42.00
2022-10-09T07:55:25.433Z,39.20
2022-10-09T07:56:25.400Z,39.90
2022-10-09T07:57:25.387Z,41.30
2022-10-09T07:58:25.376Z,40.00
2022-10-09T07:59:25.364Z,47.50
2022-10-09T08:00:25.457Z,35.10
2022-10-09T08:01:25.591Z,34.60
2022-10-09T08:02:25.395Z,38.70
2022-10-09T08:03:25.320Z,39.00
2022-10-09T08:04:25.318Z,30.80
2022-10-09T08:05:25.315Z,37.40
2022-10-09T08:06:25.285Z,35.30
2022-10-09T08:07:25.278Z,38.10
2022-10-09T08:08:25.265Z,31.80
2022-10-09T08:09:25.258Z,34.80
2022-10-09T08:10:25.239Z,33.10
2022-10-09T08:11:25.255Z,38.40
2022-10-09T08:12:25.222Z,32.20
2022-10-09T08:13:25.217Z,33.90
2022-10-09T08:14:25.197Z,34.60
2022-10-09T08:15:25.382Z,35.50
2022-10-09T08:16:25.175Z,34.50
2022-10-09T08:17:25.183Z,33.80
2022-10-09T08:18:25.168Z,32.20
2022-10-09T08:19:25.149Z,32.20
2022-10-09T08:20:25.134Z,29.80
2022-10-09T08:21:25.125Z,32.50
2022-10-09T08:22:25.110Z,33.90
2022-10-09T08:23:25.103Z,26.90
2022-10-09T08:24:25.086Z,28.70
2022-10-09T08:25:25.079Z,26.90
2022-10-09T08:26:25.066Z,29.70
2022-10-09T08:27:25.079Z,32.70
2022-10-09T08:28:25.120Z,30.60
2022-10-09T08:29:25.046Z,27.30
2022-10-09T08:30:25.022Z,28.00
2022-10-09T08:31:25.196Z,27.70
2022-10-09T08:32:25.001Z,31.00
2022-10-09T08:33:25.017Z,24.60
2022-10-09T08:34:24.978Z,27.30
2022-10-09T08:35:24.975Z,29.50
2022-10-09T08:36:24.959Z,30.90
2022-10-09T08:37:24.945Z,28.60
2022-10-09T08:38:46.242Z,27.90
2022-10-09T08:39:25.952Z,24.20
2022-10-09T08:40:24.912Z,25.20
2022-10-09T08:41:24.916Z,24.40
2022-10-09T08:42:24.890Z,22.80
2022-10-09T08:43:24.908Z,26.70
2022-10-09T08:44:24.867Z,23.50
2022-10-09T08:45:24.868Z,23.20
2022-10-09T08:46:24.878Z,24.60
2022-10-09T08:47:24.844Z,22.40
2022-10-09T08:48:24.826Z,23.70
2022-10-09T08:49:24.819Z,24.10
2022-10-09T08:50:24.803Z,23.00
2022-10-09T08:51:24.797Z,23.90
2022-10-09T08:52:24.803Z,24.00
2022-10-09T08:53:24.774Z,28.30
2022-10-09T08:54:24.775Z,19.30
2022-10-09T08:55:24.761Z,22.50
2022-10-09T08:56:24.751Z,30.40
2022-10-09T08:57:24.732Z,18.00
2022-10-09T08:58:24.718Z,23.00
2022-10-09T08:59:24.729Z,23.20
2022-10-09T09:00:24.692Z,24.30
2022-10-09T09:01:24.756Z,21.10
2022-10-09T09:02:24.729Z,20.80
2022-10-09T09:03:24.680Z,22.90
2022-10-09T09:04:24.665Z,25.00
2022-10-09T09:05:24.647Z,19.70
2022-10-09T09:06:24.629Z,24.40
2022-10-09T09:07:24.626Z,26.90
2022-10-09T09:08:24.609Z,18.60
2022-10-09T09:09:24.596Z,23.90
2022-10-09T09:10:24.586Z,21.70
2022-10-09T09:11:24.576Z,18.40
2022-10-09T09:12:24.563Z,21.60
2022-10-09T09:13:24.563Z,22.40
2022-10-09T09:14:24.608Z,22.50
2022-10-09T09:15:24.671Z,23.30
2022-10-09T09:16:24.584Z,18.70
2022-10-09T09:17:24.515Z,21.20
2022-10-09T09:18:24.495Z,22.90
2022-10-09T09:19:24.486Z,18.20
2022-10-09T09:20:24.476Z,21.50
2022-10-09T09:21:24.465Z,17.80
2022-10-09T09:22:24.455Z,17.40
2022-10-09T09:23:24.444Z,18.40
2022-10-09T09:24:24.440Z,17.80
2022-10-09T09:25:24.442Z,21.30
2022-10-09T09:26:24.409Z,30.40
2022-10-09T09:27:25.128Z,20.20
2022-10-09T09:28:24.450Z,22.10
2022-10-09T09:29:24.385Z,22.90
2022-10-09T09:30:24.363Z,23.60
2022-10-09T09:31:24.425Z,23.70
2022-10-09T09:32:24.344Z,18.80
2022-10-09T09:33:24.335Z,17.10
2022-10-09T09:34:24.324Z,17.20
2022-10-09T09:35:24.337Z,15.90
2022-10-09T09:36:24.316Z,17.80
2022-10-09T09:37:24.293Z,19.00
2022-10-09T09:38:24.281Z,15.80
2022-10-09T09:40:23.851Z,15.20
2022-10-09T09:40:44.361Z,24.20
2022-10-09T09:41:25.311Z,14.20
2022-10-09T09:42:24.240Z,15.70
2022-10-09T09:43:24.240Z,21.90
2022-10-09T09:44:24.218Z,14.90
2022-10-09T09:45:24.210Z,11.20
2022-10-09T09:46:24.258Z,11.70
2022-10-09T09:47:24.236Z,13.40
2022-10-09T09:48:24.187Z,15.20
2022-10-09T09:49:24.165Z,10.30
2022-10-09T09:50:46.143Z,12.80
2022-10-09T09:51:29.300Z,23.10
2022-10-09T09:52:24.130Z,18.80
2022-10-09T09:53:24.119Z,12.70
2022-10-09T09:54:24.109Z,16.80
2022-10-09T09:55:24.098Z,16.40
2022-10-09T09:56:24.083Z,13.30
2022-10-09T09:57:24.076Z,14.10
2022-10-09T09:58:24.071Z,14.10
2022-10-09T09:59:24.080Z,10.70
2022-10-09T10:00:24.041Z,13.30
2022-10-09T10:01:24.085Z,13.80
2022-10-09T10:02:24.173Z,13.70
2022-10-09T10:03:24.028Z,14.20
2022-10-09T10:04:23.996Z,15.20
2022-10-09T10:05:24.285Z,16.50
2022-10-09T10:06:23.972Z,10.00
2022-10-09T10:07:23.967Z,13.50
2022-10-09T10:08:23.958Z,15.60
2022-10-09T10:09:23.945Z,15.50
2022-10-09T10:10:25.696Z,13.60
2022-10-09T10:11:23.922Z,13.20
2022-10-09T10:12:23.911Z,11.70
2022-10-09T10:13:23.903Z,13.20
2022-10-09T10:14:23.888Z,14.70
2022-10-09T10:15:23.884Z,14.00
2022-10-09T10:16:23.921Z,11.50
2022-10-09T10:17:23.858Z,13.10
2022-10-09T10:18:23.847Z,15.10
2022-10-09T10:19:24.141Z,15.00
2022-10-09T10:20:23.837Z,11.60
2022-10-09T10:21:23.913Z,10.70
2022-10-09T10:22:23.801Z,12.90
2022-10-09T10:23:23.793Z,13.30
2022-10-09T10:24:23.781Z,11.20
2022-10-09T10:25:23.774Z,10.20
2022-10-09T10:26:23.759Z,10.50
2022-10-09T10:27:23.751Z,10.20
2022-10-09T10:28:23.766Z,11.60
2022-10-09T10:29:23.730Z,11.70
2022-10-09T10:30:23.716Z,11.70
2022-10-09T10:31:23.794Z,12.90
2022-10-09T10:32:23.734Z,10.40
2022-10-09T10:33:23.687Z,14.10
2022-10-09T10:34:23.672Z,15.00
2022-10-09T10:35:23.685Z,12.30
2022-10-09T10:36:23.650Z,14.40
2022-10-09T10:37:23.642Z,17.30
2022-10-09T10:38:23.627Z,14.00
2022-10-09T10:39:23.618Z,12.60
2022-10-09T10:40:23.606Z,11.00
2022-10-09T10:41:23.599Z,11.30
2022-10-09T10:42:23.591Z,10.70
2022-10-09T10:43:23.577Z,10.70
2022-10-09T10:44:23.565Z,12.30
2022-10-09T10:45:23.555Z,9.40
2022-10-09T10:46:23.757Z,10.60
2022-10-09T10:47:23.539Z,13.60
2022-10-09T10:48:23.520Z,10.50
2022-10-09T10:49:23.506Z,11.00
2022-10-09T10:50:23.495Z,13.20
2022-10-09T10:51:23.509Z,17.40
2022-10-09T10:52:23.476Z,11.30
2022-10-09T10:53:23.471Z,9.40
2022-10-09T10:54:23.464Z,10.20
2022-10-09T10:55:23.446Z,8.40
2022-10-09T10:56:23.433Z,8.00
2022-10-09T10:57:23.422Z,9.50
2022-10-09T10:58:23.420Z,12.10
2022-10-09T10:59:23.506Z,7.80
2022-10-09T11:00:23.392Z,10.80
2022-10-09T11:01:23.491Z,10.20
2022-10-09T11:02:23.371Z,9.00
2022-10-09T11:03:23.580Z,11.60
2022-10-09T11:04:23.353Z,11.10
2022-10-09T11:05:23.350Z,13.70
2022-10-09T11:06:23.334Z,8.40
2022-10-09T11:07:23.345Z,13.60
2022-10-09T11:08:23.319Z,9.10
2022-10-09T11:09:23.300Z,10.80
2022-10-09T11:10:23.292Z,11.80
2022-10-09T11:11:23.272Z,10.40
2022-10-09T11:12:43.375Z,9.90
2022-10-09T11:13:23.250Z,15.30
2022-10-09T11:14:23.240Z,9.90
2022-10-09T11:15:23.226Z,10.90
2022-10-09T11:16:23.278Z,10.40
2022-10-09T11:17:23.208Z,8.80
2022-10-09T11:18:23.197Z,9.80
2022-10-09T11:19:23.184Z,9.10
2022-10-09T11:20:23.226Z,11.60
2022-10-09T11:21:23.167Z,12.10
2022-10-09T11:22:23.158Z,11.50
2022-10-09T11:23:23.160Z,9.30
2022-10-09T11:24:23.132Z,10.70
2022-10-09T11:25:23.121Z,14.30
2022-10-09T11:26:23.148Z,7.80
2022-10-09T11:27:23.096Z,11.20
2022-10-09T11:28:23.135Z,13.20
2022-10-09T11:29:23.073Z,8.70
2022-10-09T11:30:23.066Z,10.20
2022-10-09T11:31:23.093Z,8.50
2022-10-09T11:32:23.038Z,10.90
2022-10-09T11:33:23.025Z,14.10
2022-10-09T11:34:23.015Z,11.10
2022-10-09T11:35:23.002Z,9.70
2022-10-09T11:36:23.028Z,9.40
2022-10-09T11:37:22.986Z,9.70
2022-10-09T11:38:22.970Z,14.80
2022-10-09T11:39:22.985Z,13.20
2022-10-09T11:40:22.951Z,11.40
2022-10-09T11:41:22.981Z,7.40
2022-10-09T11:42:22.925Z,10.40
2022-10-09T11:43:22.915Z,7.90
2022-10-09T11:44:22.909Z,7.30
2022-10-09T11:45:23.063Z,8.20
2022-10-09T11:46:22.881Z,10.00
2022-10-09T11:47:22.868Z,10.60
2022-10-09T11:48:22.857Z,7.70
2022-10-09T11:49:22.850Z,9.50
2022-10-09T11:50:22.833Z,9.20
2022-10-09T11:51:22.824Z,11.80
2022-10-09T11:52:22.816Z,10.60
2022-10-09T11:53:22.803Z,10.50
2022-10-09T11:54:22.798Z,11.00
2022-10-09T11:55:22.800Z,10.20
2022-10-09T11:56:22.768Z,9.90
2022-10-09T11:57:22.759Z,11.90
2022-10-09T11:58:22.760Z,10.50
2022-10-09T11:59:22.731Z,8.80
2022-10-09T12:00:22.720Z,8.00
2022-10-09T12:01:22.737Z,13.40
2022-10-09T12:02:22.778Z,11.30
2022-10-09T12:03:22.690Z,11.00
2022-10-09T12:04:37.412Z,9.60
2022-10-09T12:05:22.666Z,9.50
2022-10-09T12:06:22.857Z,9.30
2022-10-09T12:07:22.640Z,9.50
2022-10-09T12:08:22.657Z,13.20
2022-10-09T12:09:22.633Z,10.10
2022-10-09T12:10:22.615Z,8.80
2022-10-09T12:11:22.625Z,11.10
2022-10-09T12:12:22.595Z,11.30
2022-10-09T12:13:22.730Z,10.80
2022-10-09T12:14:22.576Z,11.70
2022-10-09T12:15:22.558Z,8.20
2022-10-09T12:16:22.587Z,9.80
2022-10-09T12:17:22.534Z,12.10
2022-10-09T12:18:22.526Z,9.10
2022-10-09T12:19:22.517Z,9.00
2022-10-09T12:20:22.507Z,8.90
2022-10-09T12:21:22.492Z,10.10
2022-10-09T12:22:22.486Z,10.10
2022-10-09T12:23:26.727Z,9.80
2022-10-09T12:24:22.462Z,11.70
2022-10-09T12:25:22.482Z,7.40
2022-10-09T12:26:22.469Z,10.30
2022-10-09T12:27:22.482Z,9.60
2022-10-09T12:28:22.550Z,8.90
2022-10-09T12:29:22.411Z,9.60
2022-10-09T12:30:22.403Z,7.60
2022-10-09T12:31:22.536Z,7.70
2022-10-09T12:32:22.382Z,8.50
2022-10-09T12:33:22.378Z,7.90
2022-10-09T12:34:22.361Z,8.40
2022-10-09T12:35:22.347Z,9.90
2022-10-09T12:36:22.340Z,9.00
2022-10-09T12:37:22.325Z,7.90
2022-10-09T12:38:22.316Z,10.40
2022-10-09T12:39:22.313Z,10.40
2022-10-09T12:40:22.291Z,8.80
2022-10-09T12:41:22.280Z,10.70
2022-10-09T12:42:22.356Z,8.10
2022-10-09T12:43:22.284Z,8.30
2022-10-09T12:44:22.248Z,9.40
2022-10-09T12:45:22.306Z,9.10
2022-10-09T12:46:22.269Z,8.90
2022-10-09T12:47:22.211Z,11.40
2022-10-09T12:48:22.203Z,9.60
2022-10-09T12:49:22.198Z,9.80
2022-10-09T12:50:22.214Z,10.00
2022-10-09T12:51:22.173Z,8.60
2022-10-09T12:52:22.161Z,10.90
2022-10-09T12:53:22.153Z,9.40
2022-10-09T12:54:22.141Z,7.70